Alvadore, Oregon
Current Conditions -  °F | °C
As of 9:54 PM on Friday 19 Dec 2014 (Local Time) from KEUG Reporting Station
Light Rain Light Rain  
Wind Chill: 44°   Ceiling: 4700
Heat Index: 48°   Visibility: 10mi
Dew Point: 45°   Wind: 8mph
Humidity: 89%   Direction: 170°S
Pressure: 29.94"   Gusts: NA
Location:  44.13°N, 123.26°W
Report Text: KEUG 200554Z 17007KT 10SM -RA OVC047 09/07 A2994 RMK AO2 SLP140 P0000 60005 T00890072 10106 20078 58018
Loading
Personal Weather Stations






























Interactive Weather Map New forecast layout! Learn more

10-Day Weather Forecast

Advertisements
Track Severe Weather on mobile